createdAt,value
2023-05-22T00:00:59.000Z,92733.00
2023-05-22T00:01:59.055Z,92733.00
2023-05-22T00:02:59.097Z,92733.00
2023-05-22T00:03:59.049Z,92733.00
2023-05-22T00:04:59.126Z,92733.00
2023-05-22T00:05:59.164Z,92735.00
2023-05-22T00:06:59.102Z,92735.00
2023-05-22T00:07:59.256Z,92735.00
2023-05-22T00:08:59.165Z,92733.00
2023-05-22T00:09:59.218Z,92735.00
2023-05-22T00:10:59.235Z,92737.00
2023-05-22T00:11:59.262Z,92735.00
2023-05-22T00:12:59.350Z,92737.00
2023-05-22T00:13:59.607Z,92737.00
2023-05-22T00:14:59.341Z,92735.00
2023-05-22T00:15:59.381Z,92737.00
2023-05-22T00:16:59.417Z,92737.00
2023-05-22T00:17:59.635Z,92735.00
2023-05-22T00:18:59.584Z,92737.00
2023-05-22T00:19:59.593Z,92739.00
2023-05-22T00:20:59.629Z,92737.00
2023-05-22T00:21:59.669Z,92739.00
2023-05-22T00:22:59.684Z,92741.00
2023-05-22T00:23:59.674Z,92737.00
2023-05-22T00:24:59.701Z,92735.00
2023-05-22T00:25:59.777Z,92735.00
2023-05-22T00:26:59.788Z,92735.00
2023-05-22T00:27:59.859Z,92733.00
2023-05-22T00:28:59.931Z,92735.00
2023-05-22T00:29:59.943Z,92735.00
2023-05-22T00:30:59.971Z,92733.00
2023-05-22T00:32:00.007Z,92731.00
2023-05-22T00:33:00.126Z,92733.00
2023-05-22T00:34:00.172Z,92735.00
2023-05-22T00:35:00.158Z,92735.00
2023-05-22T00:36:00.199Z,92737.00
2023-05-22T00:37:00.224Z,92737.00
2023-05-22T00:38:00.254Z,92737.00
2023-05-22T00:39:00.277Z,92733.00
2023-05-22T00:40:00.305Z,92737.00
2023-05-22T00:41:00.279Z,92739.00
2023-05-22T00:42:00.270Z,92731.00
2023-05-22T00:43:00.279Z,92733.00
2023-05-22T00:44:00.286Z,92737.00
2023-05-22T00:45:00.279Z,92731.00
2023-05-22T00:46:00.281Z,92731.00
2023-05-22T00:47:00.350Z,92731.00
2023-05-22T00:48:00.323Z,92729.00
2023-05-22T00:49:00.308Z,92731.00
2023-05-22T00:50:00.288Z,92731.00
2023-05-22T00:51:00.289Z,92731.00
2023-05-22T00:52:00.313Z,92731.00
2023-05-22T00:53:00.614Z,92731.00
2023-05-22T00:54:00.386Z,92733.00
2023-05-22T00:55:00.302Z,92733.00
2023-05-22T00:56:00.284Z,92731.00
2023-05-22T00:57:00.292Z,92733.00
2023-05-22T00:58:00.296Z,92733.00
2023-05-22T00:59:00.281Z,92733.00
2023-05-22T01:00:00.353Z,92733.00
2023-05-22T01:01:00.272Z,92735.00
2023-05-22T01:02:00.308Z,92733.00
2023-05-22T01:03:00.449Z,92731.00
2023-05-22T01:04:00.432Z,92733.00
2023-05-22T01:05:00.319Z,92733.00
2023-05-22T01:06:00.359Z,92735.00
2023-05-22T01:07:00.355Z,92735.00
2023-05-22T01:08:00.396Z,92737.00
2023-05-22T01:09:00.360Z,92735.00
2023-05-22T01:10:00.422Z,92741.00
2023-05-22T01:11:00.350Z,92737.00
2023-05-22T01:12:00.361Z,92737.00
2023-05-22T01:13:00.352Z,92737.00
2023-05-22T01:14:00.382Z,92737.00
2023-05-22T01:15:00.463Z,92739.00
2023-05-22T01:16:00.417Z,92735.00
2023-05-22T01:17:00.402Z,92741.00
2023-05-22T01:18:00.478Z,92741.00
2023-05-22T01:19:00.485Z,92739.00
2023-05-22T01:20:00.472Z,92739.00
2023-05-22T01:21:00.494Z,92737.00
2023-05-22T01:22:00.595Z,92737.00
2023-05-22T01:23:00.560Z,92735.00
2023-05-22T01:24:00.604Z,92739.00
2023-05-22T01:25:00.592Z,92739.00
2023-05-22T01:26:00.609Z,92737.00
2023-05-22T01:27:00.669Z,92739.00
2023-05-22T01:28:00.788Z,92739.00
2023-05-22T01:29:00.721Z,92737.00
2023-05-22T01:30:00.796Z,92737.00
2023-05-22T01:31:00.776Z,92737.00
2023-05-22T01:32:00.806Z,92735.00
2023-05-22T01:33:00.950Z,92737.00
2023-05-22T01:34:00.938Z,92735.00
2023-05-22T01:35:00.868Z,92735.00
2023-05-22T01:36:00.999Z,92735.00
2023-05-22T01:37:00.982Z,92735.00
2023-05-22T01:38:01.057Z,92735.00
2023-05-22T01:39:01.084Z,92735.00
2023-05-22T01:40:01.134Z,92739.00
2023-05-22T01:41:01.200Z,92735.00
2023-05-22T01:42:01.227Z,92737.00
2023-05-22T01:43:01.279Z,92735.00
2023-05-22T01:44:01.323Z,92735.00
2023-05-22T01:45:01.389Z,92733.00
2023-05-22T01:46:01.527Z,92735.00
2023-05-22T01:47:01.511Z,92735.00
2023-05-22T01:48:01.608Z,92737.00
2023-05-22T01:49:01.606Z,92737.00
2023-05-22T01:50:01.682Z,92737.00
2023-05-22T01:51:01.745Z,92741.00
2023-05-22T01:52:01.876Z,92745.00
2023-05-22T01:53:01.900Z,92743.00
2023-05-22T01:54:01.929Z,92743.00
2023-05-22T01:55:02.013Z,92741.00
2023-05-22T01:56:02.073Z,92741.00
2023-05-22T01:57:02.126Z,92743.00
2023-05-22T01:58:02.185Z,92741.00
2023-05-22T01:59:02.293Z,92739.00
2023-05-22T02:00:02.661Z,92741.00
2023-05-22T02:01:02.358Z,92741.00
2023-05-22T02:02:02.418Z,92739.00
2023-05-22T02:03:02.523Z,92743.00
2023-05-22T02:04:02.547Z,92743.00
2023-05-22T02:05:02.634Z,92743.00
2023-05-22T02:06:02.654Z,92743.00
2023-05-22T02:07:02.710Z,92745.00
2023-05-22T02:08:02.801Z,92743.00
2023-05-22T02:09:02.817Z,92745.00
2023-05-22T02:10:02.886Z,92747.00
2023-05-22T02:11:03.652Z,92753.00
2023-05-22T02:12:02.953Z,92749.00
2023-05-22T02:13:03.002Z,92753.00
2023-05-22T02:14:03.080Z,92749.00
2023-05-22T02:15:03.115Z,92753.00
2023-05-22T02:16:03.249Z,92753.00
2023-05-22T02:17:03.242Z,92751.00
2023-05-22T02:18:03.393Z,92753.00
2023-05-22T02:19:03.463Z,92753.00
2023-05-22T02:20:03.406Z,92751.00
2023-05-22T02:21:03.474Z,92751.00
2023-05-22T02:22:03.527Z,92751.00
2023-05-22T02:23:03.580Z,92753.00
2023-05-22T02:24:03.683Z,92753.00
2023-05-22T02:25:03.798Z,92755.00
2023-05-22T02:26:03.755Z,92757.00
2023-05-22T02:27:03.872Z,92755.00
2023-05-22T02:28:03.943Z,92757.00
2023-05-22T02:29:03.965Z,92753.00
2023-05-22T02:30:03.998Z,92755.00
2023-05-22T02:31:04.238Z,92755.00
2023-05-22T02:32:04.116Z,92757.00
2023-05-22T02:33:04.290Z,92759.00
2023-05-22T02:34:04.211Z,92755.00
2023-05-22T02:35:04.279Z,92759.00
2023-05-22T02:36:04.332Z,92759.00
2023-05-22T02:37:04.400Z,92759.00
2023-05-22T02:38:04.522Z,92759.00
2023-05-22T02:39:04.508Z,92757.00
2023-05-22T02:40:04.592Z,92757.00
2023-05-22T02:41:04.645Z,92760.00
2023-05-22T02:42:04.702Z,92760.00
2023-05-22T02:43:04.769Z,92762.00
2023-05-22T02:44:04.833Z,92762.00
2023-05-22T02:45:04.879Z,92762.00
2023-05-22T02:46:04.991Z,92764.00
2023-05-22T02:47:05.025Z,92764.00
2023-05-22T02:48:05.132Z,92762.00
2023-05-22T02:49:05.141Z,92762.00
2023-05-22T02:50:05.208Z,92764.00
2023-05-22T02:51:05.264Z,92764.00
2023-05-22T02:52:05.399Z,92762.00
2023-05-22T02:53:05.379Z,92764.00
2023-05-22T02:54:05.458Z,92764.00
2023-05-22T02:55:05.667Z,92762.00
2023-05-22T02:56:05.582Z,92764.00
2023-05-22T02:57:05.644Z,92762.00
2023-05-22T02:58:05.699Z,92764.00
2023-05-22T02:59:06.657Z,92762.00
2023-05-22T03:00:05.863Z,92760.00
2023-05-22T03:01:05.867Z,92762.00
2023-05-22T03:02:06.050Z,92760.00
2023-05-22T03:03:05.999Z,92759.00
2023-05-22T03:04:06.086Z,92759.00
2023-05-22T03:05:06.092Z,92759.00
2023-05-22T03:06:06.157Z,92759.00
2023-05-22T03:07:06.217Z,92757.00
2023-05-22T03:08:06.284Z,92759.00
2023-05-22T03:09:06.371Z,92757.00
2023-05-22T03:10:06.393Z,92759.00
2023-05-22T03:11:07.168Z,92757.00
2023-05-22T03:12:06.550Z,92757.00
2023-05-22T03:13:06.603Z,92757.00
2023-05-22T03:14:06.671Z,92757.00
2023-05-22T03:15:06.735Z,92755.00
2023-05-22T03:16:06.840Z,92757.00
2023-05-22T03:17:06.819Z,92755.00
2023-05-22T03:18:06.951Z,92759.00
2023-05-22T03:19:06.993Z,92757.00
2023-05-22T03:20:07.032Z,92759.00
2023-05-22T03:21:07.085Z,92757.00
2023-05-22T03:22:07.157Z,92757.00
2023-05-22T03:23:07.219Z,92755.00
2023-05-22T03:24:07.353Z,92755.00
2023-05-22T03:25:07.348Z,92757.00
2023-05-22T03:26:07.412Z,92757.00
2023-05-22T03:27:07.471Z,92755.00
2023-05-22T03:28:07.542Z,92759.00
2023-05-22T03:29:07.716Z,92753.00
2023-05-22T03:30:07.658Z,92757.00
2023-05-22T03:31:07.699Z,92755.00
2023-05-22T03:32:07.830Z,92753.00
2023-05-22T03:33:07.827Z,92753.00
2023-05-22T03:34:08.052Z,92757.00
2023-05-22T03:35:07.933Z,92755.00
2023-05-22T03:36:07.986Z,92755.00
2023-05-22T03:37:08.052Z,92755.00
2023-05-22T03:38:08.146Z,92755.00
2023-05-22T03:39:08.168Z,92753.00
2023-05-22T03:40:08.285Z,92751.00
2023-05-22T03:41:08.287Z,92751.00
2023-05-22T03:42:08.380Z,92753.00
2023-05-22T03:43:08.397Z,92753.00
2023-05-22T03:44:08.456Z,92753.00
2023-05-22T03:45:08.516Z,92751.00
2023-05-22T03:46:08.660Z,92751.00
2023-05-22T03:47:08.612Z,92753.00
2023-05-22T03:48:08.787Z,92749.00
2023-05-22T03:49:08.694Z,92747.00
2023-05-22T03:50:08.751Z,92747.00
2023-05-22T03:51:08.816Z,92747.00
2023-05-22T03:52:08.872Z,92747.00
2023-05-22T03:53:08.950Z,92745.00
2023-05-22T03:54:09.002Z,92745.00
2023-05-22T03:55:09.085Z,92745.00
2023-05-22T03:56:09.105Z,92743.00
2023-05-22T03:57:09.164Z,92743.00
2023-05-22T03:58:09.240Z,92741.00
2023-05-22T03:59:09.685Z,92741.00
2023-05-22T04:00:09.339Z,92741.00
2023-05-22T04:01:09.398Z,92741.00
2023-05-22T04:02:09.480Z,92743.00
2023-05-22T04:03:09.612Z,92743.00
2023-05-22T04:04:09.574Z,92743.00
2023-05-22T04:05:09.676Z,92745.00
2023-05-22T04:06:09.692Z,92741.00
2023-05-22T04:07:09.742Z,92745.00
2023-05-22T04:08:09.794Z,92745.00
2023-05-22T04:09:09.851Z,92747.00
2023-05-22T04:10:09.895Z,92745.00
2023-05-22T04:11:09.956Z,92745.00
2023-05-22T04:12:10.010Z,92745.00
2023-05-22T04:13:10.058Z,92741.00
2023-05-22T04:14:10.112Z,92741.00
2023-05-22T04:15:10.184Z,92745.00
2023-05-22T04:16:10.317Z,92745.00
2023-05-22T04:17:10.318Z,92745.00
2023-05-22T04:18:10.375Z,92747.00
2023-05-22T04:19:10.476Z,92745.00
2023-05-22T04:20:10.467Z,92745.00
2023-05-22T04:21:10.518Z,92745.00
2023-05-22T04:22:10.575Z,92747.00
2023-05-22T04:23:10.636Z,92747.00
2023-05-22T04:24:10.806Z,92747.00
2023-05-22T04:25:10.791Z,92749.00
2023-05-22T04:26:10.810Z,92749.00
2023-05-22T04:27:10.872Z,92747.00
2023-05-22T04:28:10.933Z,92749.00
2023-05-22T04:29:11.064Z,92747.00
2023-05-22T04:30:11.082Z,92749.00
2023-05-22T04:31:11.163Z,92747.00
2023-05-22T04:32:11.166Z,92753.00
2023-05-22T04:33:11.367Z,92753.00
2023-05-22T04:34:11.273Z,92753.00
2023-05-22T04:35:11.335Z,92755.00
2023-05-22T04:36:12.512Z,92755.00
2023-05-22T04:37:11.456Z,92757.00
2023-05-22T04:38:11.524Z,92755.00
2023-05-22T04:39:11.575Z,92757.00
2023-05-22T04:40:11.677Z,92757.00
2023-05-22T04:41:11.685Z,92755.00
2023-05-22T04:42:11.743Z,92759.00
2023-05-22T04:43:11.804Z,92757.00
2023-05-22T04:44:11.869Z,92759.00
2023-05-22T04:45:11.925Z,92759.00
2023-05-22T04:46:12.060Z,92759.00
2023-05-22T04:47:12.098Z,92759.00
2023-05-22T04:48:12.108Z,92762.00
2023-05-22T04:49:12.214Z,92760.00
2023-05-22T04:50:12.233Z,92760.00
2023-05-22T04:51:12.293Z,92760.00
2023-05-22T04:52:12.354Z,92762.00
2023-05-22T04:53:12.417Z,92766.00
2023-05-22T04:54:12.561Z,92768.00
2023-05-22T04:55:12.608Z,92768.00
2023-05-22T04:56:14.673Z,92768.00
2023-05-22T04:57:12.603Z,92770.00
2023-05-22T04:58:12.585Z,92770.00
2023-05-22T04:59:12.576Z,92772.00
2023-05-22T05:00:12.569Z,92770.00
2023-05-22T05:01:12.611Z,92768.00
2023-05-22T05:02:12.552Z,92772.00
2023-05-22T05:03:12.728Z,92774.00
2023-05-22T05:04:12.609Z,92776.00
2023-05-22T05:05:12.531Z,92776.00
2023-05-22T05:06:12.514Z,92774.00
2023-05-22T05:07:12.507Z,92778.00
2023-05-22T05:08:12.500Z,92778.00
2023-05-22T05:09:12.497Z,92776.00
2023-05-22T05:10:12.602Z,92776.00
2023-05-22T05:11:12.476Z,92774.00
2023-05-22T05:12:12.470Z,92776.00
2023-05-22T05:13:12.471Z,92776.00
2023-05-22T05:14:12.468Z,92774.00
2023-05-22T05:15:12.450Z,92776.00
2023-05-22T05:16:12.583Z,92776.00
2023-05-22T05:17:12.432Z,92776.00
2023-05-22T05:18:12.671Z,92772.00
2023-05-22T05:19:12.660Z,92774.00
2023-05-22T05:20:12.615Z,92772.00
2023-05-22T05:21:12.670Z,92772.00
2023-05-22T05:22:12.730Z,92772.00
2023-05-22T05:23:12.791Z,92776.00
2023-05-22T05:24:12.845Z,92774.00
2023-05-22T05:25:12.966Z,92776.00
2023-05-22T05:26:12.951Z,92772.00
2023-05-22T05:27:13.008Z,92768.00
2023-05-22T05:28:13.105Z,92768.00
2023-05-22T05:29:13.133Z,92768.00
2023-05-22T05:30:13.253Z,92768.00
2023-05-22T05:31:13.294Z,92768.00
2023-05-22T05:32:13.359Z,92766.00
2023-05-22T05:33:13.477Z,92764.00
2023-05-22T05:34:13.413Z,92764.00
2023-05-22T05:35:13.472Z,92764.00
2023-05-22T05:36:13.530Z,92762.00
2023-05-22T05:37:13.589Z,92762.00
2023-05-22T05:38:13.713Z,92760.00
2023-05-22T05:39:13.775Z,92762.00
2023-05-22T05:40:13.771Z,92760.00
2023-05-22T05:41:13.826Z,92760.00
2023-05-22T05:42:13.870Z,92759.00
2023-05-22T05:43:13.933Z,92757.00
2023-05-22T05:44:13.998Z,92757.00
2023-05-22T05:45:14.057Z,92755.00
2023-05-22T05:46:14.149Z,92759.00
2023-05-22T05:47:14.165Z,92757.00
2023-05-22T05:48:14.224Z,92755.00
2023-05-22T05:49:14.266Z,92755.00
2023-05-22T05:50:14.333Z,92755.00
2023-05-22T05:51:14.390Z,92755.00
2023-05-22T05:52:14.470Z,92755.00
2023-05-22T05:53:14.497Z,92757.00
2023-05-22T05:54:14.586Z,92755.00
2023-05-22T05:55:14.623Z,92753.00
2023-05-22T05:56:14.699Z,92755.00
2023-05-22T05:57:15.625Z,92755.00
2023-05-22T05:58:15.223Z,92753.00
2023-05-22T05:59:14.631Z,92751.00
2023-05-22T06:00:14.598Z,92747.00
2023-05-22T06:01:14.578Z,92749.00
2023-05-22T06:02:14.661Z,92749.00
2023-05-22T06:03:14.738Z,92751.00
2023-05-22T06:04:15.185Z,92749.00
2023-05-22T06:05:14.681Z,92753.00
2023-05-22T06:06:14.728Z,92749.00
2023-05-22T06:07:14.768Z,92751.00
2023-05-22T06:08:14.834Z,92749.00
2023-05-22T06:09:14.892Z,92753.00
2023-05-22T06:10:15.030Z,92751.00
2023-05-22T06:11:15.070Z,92749.00
2023-05-22T06:12:15.983Z,92753.00
2023-05-22T06:13:14.973Z,92755.00
2023-05-22T06:14:14.976Z,92753.00
2023-05-22T06:15:14.953Z,92755.00
2023-05-22T06:16:14.965Z,92755.00
2023-05-22T06:17:14.933Z,92753.00
2023-05-22T06:18:14.928Z,92753.00
2023-05-22T06:19:15.016Z,92753.00
2023-05-22T06:20:15.040Z,92751.00
2023-05-22T06:21:15.657Z,92747.00
2023-05-22T06:22:15.147Z,92749.00
2023-05-22T06:23:15.212Z,92749.00
2023-05-22T06:24:15.260Z,92747.00
2023-05-22T06:25:15.332Z,92743.00
2023-05-22T06:26:15.421Z,92743.00
2023-05-22T06:27:15.457Z,92745.00
2023-05-22T06:28:16.231Z,92741.00
2023-05-22T06:29:15.561Z,92741.00
2023-05-22T06:30:22.405Z,92741.00
2023-05-22T06:31:16.621Z,92737.00
2023-05-22T06:32:15.644Z,92739.00
2023-05-22T06:33:15.620Z,92735.00
2023-05-22T06:34:15.653Z,92735.00
2023-05-22T06:35:15.573Z,92735.00
2023-05-22T06:36:15.573Z,92733.00
2023-05-22T06:37:15.569Z,92733.00
2023-05-22T06:38:15.625Z,92733.00
2023-05-22T06:39:15.678Z,92735.00
2023-05-22T06:40:15.746Z,92731.00
2023-05-22T06:41:15.810Z,92735.00
2023-05-22T06:42:15.876Z,92733.00
2023-05-22T06:43:15.935Z,92731.00
2023-05-22T06:44:16.094Z,92731.00
2023-05-22T06:45:16.055Z,92731.00
2023-05-22T06:46:16.180Z,92729.00
2023-05-22T06:47:16.197Z,92727.00
2023-05-22T06:48:16.248Z,92727.00
2023-05-22T06:49:16.291Z,92725.00
2023-05-22T06:50:16.341Z,92725.00
2023-05-22T06:51:16.478Z,92723.00
2023-05-22T06:52:16.466Z,92721.00
2023-05-22T06:53:16.521Z,92721.00
2023-05-22T06:54:16.586Z,92717.00
2023-05-22T06:55:16.699Z,92715.00
2023-05-22T06:56:17.244Z,92715.00
2023-05-22T06:57:16.747Z,92715.00
2023-05-22T06:58:16.800Z,92708.00
2023-05-22T06:59:16.845Z,92708.00
2023-05-22T07:00:18.271Z,92710.00
2023-05-22T07:01:17.071Z,92710.00
2023-05-22T07:02:17.007Z,92708.00
2023-05-22T07:03:17.079Z,92706.00
2023-05-22T07:04:17.131Z,92708.00
2023-05-22T07:05:17.357Z,92704.00
2023-05-22T07:06:17.376Z,92706.00
2023-05-22T07:07:17.295Z,92704.00
2023-05-22T07:08:17.365Z,92704.00
2023-05-22T07:09:17.491Z,92706.00
2023-05-22T07:10:17.466Z,92704.00
2023-05-22T07:11:17.497Z,92704.00
2023-05-22T07:12:17.548Z,92706.00
2023-05-22T07:13:17.608Z,92704.00
2023-05-22T07:14:17.678Z,92702.00
2023-05-22T07:15:17.715Z,92704.00
2023-05-22T07:16:18.192Z,92702.00
2023-05-22T07:17:17.819Z,92702.00
2023-05-22T07:18:17.873Z,92700.00
2023-05-22T07:19:17.977Z,92706.00
2023-05-22T07:20:17.990Z,92702.00
2023-05-22T07:21:17.999Z,92702.00
2023-05-22T07:22:18.047Z,92700.00
2023-05-22T07:23:18.078Z,92700.00
2023-05-22T07:24:18.672Z,92696.00
2023-05-22T07:25:18.188Z,92696.00
2023-05-22T07:26:19.177Z,92696.00
2023-05-22T07:27:18.329Z,92694.00
2023-05-22T07:28:18.341Z,92696.00
2023-05-22T07:29:18.381Z,92696.00
2023-05-22T07:30:18.421Z,92692.00
2023-05-22T07:31:18.504Z,92690.00
2023-05-22T07:32:18.586Z,92690.00
2023-05-22T07:33:18.581Z,92692.00
2023-05-22T07:34:18.545Z,92692.00
2023-05-22T07:35:18.563Z,92694.00
2023-05-22T07:36:19.251Z,92690.00
2023-05-22T07:37:18.603Z,92692.00
2023-05-22T07:38:18.638Z,92690.00
2023-05-22T07:39:18.622Z,92690.00
2023-05-22T07:40:18.654Z,92688.00
2023-05-22T07:41:18.659Z,92692.00
2023-05-22T07:42:18.668Z,92688.00
2023-05-22T07:43:18.657Z,92684.00
2023-05-22T07:44:18.657Z,92686.00
2023-05-22T07:45:18.652Z,92684.00
2023-05-22T07:46:18.702Z,92678.00
2023-05-22T07:47:18.652Z,92682.00
2023-05-22T07:48:18.727Z,92682.00
2023-05-22T07:49:18.644Z,92680.00
2023-05-22T07:50:18.631Z,92676.00
2023-05-22T07:51:18.618Z,92680.00
2023-05-22T07:52:18.612Z,92678.00
2023-05-22T07:53:18.605Z,92680.00
2023-05-22T07:54:18.780Z,92678.00
2023-05-22T07:55:18.572Z,92678.00
2023-05-22T07:56:18.541Z,92674.00
2023-05-22T07:57:18.531Z,92674.00
2023-05-22T07:58:18.507Z,92668.00
2023-05-22T07:59:18.486Z,92670.00
2023-05-22T08:00:18.482Z,92668.00
2023-05-22T08:01:18.482Z,92668.00
2023-05-22T08:02:18.503Z,92670.00
2023-05-22T08:03:19.119Z,92668.00
2023-05-22T08:04:18.710Z,92666.00
2023-05-22T08:05:18.551Z,92666.00
2023-05-22T08:06:18.525Z,92663.00
2023-05-22T08:07:18.552Z,92663.00
2023-05-22T08:08:18.554Z,92661.00
2023-05-22T08:09:18.589Z,92661.00
2023-05-22T08:10:18.633Z,92663.00
2023-05-22T08:11:18.685Z,92661.00
2023-05-22T08:12:18.726Z,92659.00
2023-05-22T08:13:18.776Z,92657.00
2023-05-22T08:14:18.818Z,92655.00
2023-05-22T08:15:18.867Z,92659.00
2023-05-22T08:16:18.877Z,92659.00
2023-05-22T08:17:19.112Z,92655.00
2023-05-22T08:18:18.964Z,92651.00
2023-05-22T08:19:19.111Z,92649.00
2023-05-22T08:20:19.093Z,92649.00
2023-05-22T08:21:19.098Z,92647.00
2023-05-22T08:22:19.184Z,92645.00
2023-05-22T08:23:19.156Z,92647.00
2023-05-22T08:24:19.191Z,92647.00
2023-05-22T08:25:19.227Z,92645.00
2023-05-22T08:26:19.264Z,92641.00
2023-05-22T08:27:19.352Z,92643.00
2023-05-22T08:28:19.332Z,92641.00
2023-05-22T08:29:19.348Z,92645.00
2023-05-22T08:30:19.394Z,92639.00
2023-05-22T08:31:19.456Z,92641.00
2023-05-22T08:32:19.447Z,92639.00
2023-05-22T08:33:19.454Z,92639.00
2023-05-22T08:34:19.464Z,92641.00
2023-05-22T08:35:19.499Z,92639.00
2023-05-22T08:36:19.508Z,92637.00
2023-05-22T08:37:19.517Z,92637.00
2023-05-22T08:38:19.526Z,92637.00
2023-05-22T08:39:19.556Z,92635.00
2023-05-22T08:40:19.562Z,92633.00
2023-05-22T08:41:19.573Z,92631.00
2023-05-22T08:42:19.639Z,92631.00
2023-05-22T08:43:19.601Z,92631.00
2023-05-22T08:44:19.605Z,92631.00
2023-05-22T08:45:19.610Z,92631.00
2023-05-22T08:46:19.655Z,92629.00
2023-05-22T08:47:19.711Z,92629.00
2023-05-22T08:48:19.701Z,92631.00
2023-05-22T08:49:20.384Z,92627.00
2023-05-22T08:50:19.672Z,92627.00
2023-05-22T08:51:19.597Z,92625.00
2023-05-22T08:52:19.591Z,92623.00
2023-05-22T08:53:19.592Z,92623.00
2023-05-22T08:54:19.581Z,92621.00
2023-05-22T08:55:19.661Z,92619.00
2023-05-22T08:56:19.559Z,92619.00
2023-05-22T08:57:19.547Z,92610.00
2023-05-22T08:58:19.540Z,92608.00
2023-05-22T08:59:20.281Z,92610.00
2023-05-22T09:00:19.518Z,92610.00
2023-05-22T09:01:19.560Z,92608.00
2023-05-22T09:02:19.487Z,92608.00
2023-05-22T09:03:19.533Z,92610.00
2023-05-22T09:04:19.436Z,92608.00
2023-05-22T09:05:19.406Z,92606.00
2023-05-22T09:06:19.397Z,92606.00
2023-05-22T09:07:19.360Z,92604.00
2023-05-22T09:08:20.990Z,92602.00
2023-05-22T09:09:19.305Z,92600.00
2023-05-22T09:10:19.286Z,92598.00
2023-05-22T09:11:19.271Z,92598.00
2023-05-22T09:12:19.204Z,92594.00
2023-05-22T09:13:19.193Z,92596.00
2023-05-22T09:14:19.158Z,92594.00
2023-05-22T09:15:19.120Z,92594.00
2023-05-22T09:16:19.121Z,92587.00
2023-05-22T09:17:19.095Z,92592.00
2023-05-22T09:18:19.040Z,92590.00
2023-05-22T09:19:19.105Z,92589.00
2023-05-22T09:20:18.989Z,92587.00
2023-05-22T09:21:29.437Z,92589.00
2023-05-22T09:23:19.731Z,92587.00
2023-05-22T09:24:18.907Z,92584.00
2023-05-22T09:25:18.830Z,92587.00
2023-05-22T09:26:19.298Z,92587.00
2023-05-22T09:27:18.757Z,92584.00
2023-05-22T09:28:18.730Z,92584.00
2023-05-22T09:29:18.699Z,92584.00
2023-05-22T09:30:18.692Z,92579.00
2023-05-22T09:31:18.679Z,92582.00
2023-05-22T09:32:18.612Z,92582.00
2023-05-22T09:33:18.586Z,92582.00
2023-05-22T09:34:18.652Z,92582.00
2023-05-22T09:35:18.536Z,92582.00
2023-05-22T09:36:18.511Z,92582.00
2023-05-22T09:37:19.383Z,92581.00
2023-05-22T09:38:19.313Z,92584.00
2023-05-22T09:39:18.715Z,92582.00
2023-05-22T09:40:18.844Z,92582.00
2023-05-22T09:41:18.666Z,92581.00
2023-05-22T09:42:18.704Z,92581.00
2023-05-22T09:43:18.737Z,92575.00
2023-05-22T09:44:18.767Z,92579.00
2023-05-22T09:45:18.810Z,92577.00
2023-05-22T09:46:18.870Z,92575.00
2023-05-22T09:47:18.975Z,92577.00
2023-05-22T09:48:18.933Z,92575.00
2023-05-22T09:49:18.968Z,92575.00
2023-05-22T09:50:19.007Z,92575.00
2023-05-22T09:51:19.038Z,92575.00
2023-05-22T09:52:19.088Z,92573.00
2023-05-22T09:53:19.159Z,92573.00
2023-05-22T09:54:19.157Z,92569.00
2023-05-22T09:55:19.182Z,92569.00
2023-05-22T09:56:27.221Z,92569.00
2023-05-22T09:57:20.195Z,92567.00
2023-05-22T09:58:19.155Z,92567.00
2023-05-22T09:59:19.134Z,92567.00
2023-05-22T10:00:19.119Z,92567.00
2023-05-22T10:01:19.103Z,92565.00
2023-05-22T10:02:19.059Z,92563.00
2023-05-22T10:03:19.056Z,92563.00
2023-05-22T10:04:19.059Z,92561.00
2023-05-22T10:05:18.957Z,92561.00
2023-05-22T10:06:18.944Z,92559.00
2023-05-22T10:07:18.954Z,92559.00
2023-05-22T10:08:18.996Z,92557.00
2023-05-22T10:09:19.650Z,92557.00
2023-05-22T10:10:19.061Z,92559.00
2023-05-22T10:11:19.096Z,92559.00
2023-05-22T10:12:19.223Z,92557.00
2023-05-22T10:13:19.176Z,92555.00
2023-05-22T10:14:19.210Z,92551.00
2023-05-22T10:15:19.248Z,92553.00
2023-05-22T10:16:19.329Z,92551.00
2023-05-22T10:17:19.317Z,92551.00
2023-05-22T10:18:19.369Z,92549.00
2023-05-22T10:19:19.440Z,92549.00
2023-05-22T10:20:19.444Z,92545.00
2023-05-22T10:21:19.478Z,92543.00
2023-05-22T10:22:19.554Z,92543.00
2023-05-22T10:23:19.625Z,92541.00
2023-05-22T10:24:19.597Z,92541.00
2023-05-22T10:25:19.650Z,92535.00
2023-05-22T10:26:19.689Z,92535.00
2023-05-22T10:27:19.748Z,92534.00
2023-05-22T10:28:19.852Z,92535.00
2023-05-22T10:29:20.748Z,92534.00
2023-05-22T10:30:19.868Z,92534.00
2023-05-22T10:31:19.996Z,92532.00
2023-05-22T10:32:19.935Z,92532.00
2023-05-22T10:33:20.097Z,92534.00
2023-05-22T10:34:20.042Z,92532.00
2023-05-22T10:35:20.074Z,92530.00
2023-05-22T10:36:20.202Z,92528.00
2023-05-22T10:37:22.144Z,92528.00
2023-05-22T10:38:20.195Z,92528.00
2023-05-22T10:39:20.241Z,92526.00
2023-05-22T10:40:20.297Z,92524.00
2023-05-22T10:41:20.413Z,92522.00
2023-05-22T10:42:20.429Z,92524.00
2023-05-22T10:43:20.442Z,92520.00
2023-05-22T10:44:20.569Z,92520.00
2023-05-22T10:45:20.522Z,92520.00
2023-05-22T10:46:20.699Z,92520.00
2023-05-22T10:47:20.676Z,92518.00
2023-05-22T10:48:20.670Z,92516.00
2023-05-22T10:49:21.340Z,92514.00
2023-05-22T10:50:20.765Z,92514.00
2023-05-22T10:51:20.801Z,92512.00
2023-05-22T10:52:20.850Z,92510.00
2023-05-22T10:53:20.912Z,92510.00
2023-05-22T10:54:20.945Z,92510.00
2023-05-22T10:55:21.013Z,92508.00
2023-05-22T10:56:23.020Z,92504.00
2023-05-22T10:57:21.092Z,92504.00
2023-05-22T10:58:20.992Z,92502.00
2023-05-22T10:59:20.975Z,92500.00
2023-05-22T11:00:21.042Z,92500.00
2023-05-22T11:01:20.987Z,92498.00
2023-05-22T11:02:20.943Z,92496.00
2023-05-22T11:03:20.923Z,92496.00
2023-05-22T11:04:20.932Z,92496.00
2023-05-22T11:05:20.860Z,92496.00
2023-05-22T11:06:20.839Z,92493.00
2023-05-22T11:07:20.812Z,92495.00
2023-05-22T11:08:20.790Z,92490.00
2023-05-22T11:09:20.805Z,92490.00
2023-05-22T11:10:20.765Z,92488.00
2023-05-22T11:11:20.760Z,92487.00
2023-05-22T11:12:20.838Z,92485.00
2023-05-22T11:13:20.735Z,92487.00
2023-05-22T11:14:20.732Z,92485.00
2023-05-22T11:15:20.706Z,92487.00
2023-05-22T11:16:20.804Z,92485.00
2023-05-22T11:17:20.673Z,92485.00
2023-05-22T11:18:20.716Z,92487.00
2023-05-22T11:19:23.841Z,92483.00
2023-05-22T11:20:20.722Z,92483.00
2023-05-22T11:21:20.691Z,92485.00
2023-05-22T11:22:20.676Z,92483.00
2023-05-22T11:23:20.656Z,92481.00
2023-05-22T11:24:20.638Z,92477.00
2023-05-22T11:25:20.613Z,92481.00
2023-05-22T11:26:20.601Z,92481.00
2023-05-22T11:27:20.585Z,92477.00
2023-05-22T11:28:20.582Z,92475.00
2023-05-22T11:29:20.546Z,92475.00
2023-05-22T11:30:20.534Z,92471.00
2023-05-22T11:31:20.589Z,92471.00
2023-05-22T11:32:20.596Z,92473.00
2023-05-22T11:33:20.524Z,92473.00
2023-05-22T11:34:20.467Z,92473.00
2023-05-22T11:35:20.446Z,92475.00
2023-05-22T11:36:20.461Z,92471.00
2023-05-22T11:37:20.468Z,92473.00
2023-05-22T11:38:20.421Z,92471.00
2023-05-22T11:39:20.374Z,92471.00
2023-05-22T11:40:20.425Z,92473.00
2023-05-22T11:41:20.306Z,92469.00
2023-05-22T11:42:20.293Z,92469.00
2023-05-22T11:43:20.274Z,92467.00
2023-05-22T11:44:20.255Z,92467.00
2023-05-22T11:45:20.223Z,92465.00
2023-05-22T11:46:20.298Z,92467.00